createdAt,value
2023-05-17T00:00:01.263Z,2.23
2023-05-17T00:02:29.178Z,3.03
2023-05-17T00:04:58.733Z,3.47
2023-05-17T00:07:26.701Z,3.00
2023-05-17T00:09:54.997Z,2.30
2023-05-17T00:12:23.018Z,2.40
2023-05-17T00:14:50.995Z,4.43
2023-05-17T00:17:19.309Z,2.83
2023-05-17T00:19:47.602Z,3.87
2023-05-17T00:22:17.017Z,4.33
2023-05-17T00:24:44.973Z,4.63
2023-05-17T00:27:12.862Z,3.60
2023-05-17T00:29:41.042Z,3.70
2023-05-17T00:32:09.020Z,4.20
2023-05-17T00:34:37.135Z,5.27
2023-05-17T00:37:05.462Z,3.23
2023-05-17T00:39:34.957Z,4.53
2023-05-17T00:42:02.843Z,3.47
2023-05-17T00:44:30.781Z,2.50
2023-05-17T00:46:59.977Z,4.50
2023-05-17T00:49:28.441Z,2.43
2023-05-17T00:51:57.073Z,4.23
2023-05-17T00:54:25.731Z,2.37
2023-05-17T00:56:57.212Z,3.00
2023-05-17T00:59:26.994Z,3.37
2023-05-17T01:01:55.810Z,3.30
2023-05-17T01:04:23.769Z,5.20
2023-05-17T01:06:51.856Z,2.70
2023-05-17T01:09:19.974Z,3.50
2023-05-17T01:11:58.207Z,5.03
2023-05-17T01:14:37.780Z,2.83
2023-05-17T01:17:08.258Z,3.13
2023-05-17T01:19:54.397Z,3.33
2023-05-17T01:22:34.064Z,2.10
2023-05-17T01:25:13.052Z,3.10
2023-05-17T01:27:46.325Z,3.10
2023-05-17T01:30:18.055Z,2.57
2023-05-17T01:32:47.343Z,2.87
2023-05-17T01:35:16.949Z,3.47
2023-05-17T01:37:45.230Z,2.53
2023-05-17T01:40:13.484Z,1.97
2023-05-17T01:42:44.865Z,2.43
2023-05-17T01:45:19.352Z,2.13
2023-05-17T01:47:54.687Z,2.17
2023-05-17T01:50:27.896Z,2.50
2023-05-17T01:53:03.273Z,3.37
2023-05-17T01:55:41.959Z,2.83
2023-05-17T01:58:13.850Z,2.07
2023-05-17T02:00:44.644Z,4.50
2023-05-17T02:03:15.656Z,2.27
2023-05-17T02:05:43.635Z,2.70
2023-05-17T02:08:11.619Z,3.33
2023-05-17T02:10:39.899Z,2.03
2023-05-17T02:13:08.018Z,3.97
2023-05-17T02:15:37.268Z,2.70
2023-05-17T02:18:07.117Z,3.80
2023-05-17T02:20:35.236Z,2.37
2023-05-17T02:23:03.142Z,2.20
2023-05-17T02:25:31.449Z,3.50
2023-05-17T02:28:00.594Z,3.10
2023-05-17T02:30:29.030Z,2.03
2023-05-17T02:32:59.350Z,2.87
2023-05-17T02:35:27.847Z,1.67
2023-05-17T02:37:56.033Z,2.10
2023-05-17T02:40:24.325Z,1.87
2023-05-17T02:42:52.251Z,2.77
2023-05-17T02:45:20.511Z,3.60
2023-05-17T02:47:48.404Z,2.57
2023-05-17T02:50:17.925Z,2.90
2023-05-17T02:52:45.947Z,1.83
2023-05-17T02:55:14.190Z,3.60
2023-05-17T02:57:42.096Z,3.87
2023-05-17T03:00:11.184Z,3.00
2023-05-17T03:02:39.186Z,3.10
2023-05-17T03:05:08.543Z,5.27
2023-05-17T03:07:40.266Z,3.67
2023-05-17T03:10:08.934Z,4.13
2023-05-17T03:12:41.451Z,4.47
2023-05-17T03:15:10.295Z,3.53
2023-05-17T03:17:38.628Z,3.07
2023-05-17T03:20:08.822Z,2.13
2023-05-17T03:22:39.032Z,3.37
2023-05-17T03:25:07.697Z,3.77
2023-05-17T03:27:35.799Z,3.00
2023-05-17T03:30:04.285Z,3.07
2023-05-17T03:32:33.825Z,4.93
2023-05-17T03:35:01.795Z,4.40
2023-05-17T03:37:30.018Z,5.87
2023-05-17T03:39:59.244Z,2.87
2023-05-17T03:42:27.916Z,3.30
2023-05-17T03:44:56.235Z,3.00
2023-05-17T03:47:24.781Z,3.73
2023-05-17T03:49:52.867Z,3.00
2023-05-17T03:52:21.308Z,3.10
2023-05-17T03:54:49.969Z,3.57
2023-05-17T03:57:19.717Z,4.13
2023-05-17T03:59:47.782Z,3.63
2023-05-17T04:02:18.415Z,4.10
2023-05-17T04:04:50.548Z,3.87
2023-05-17T04:07:19.560Z,4.50
2023-05-17T04:09:48.057Z,2.67
2023-05-17T04:12:16.332Z,2.87
2023-05-17T04:14:46.389Z,3.87
2023-05-17T04:17:16.320Z,4.23
2023-05-17T04:19:46.432Z,2.40
2023-05-17T04:22:14.949Z,4.23
2023-05-17T04:24:43.644Z,4.27
2023-05-17T04:27:11.623Z,4.20
2023-05-17T04:29:41.020Z,3.70
2023-05-17T04:32:10.914Z,3.83
2023-05-17T04:34:39.682Z,4.87
2023-05-17T04:37:07.846Z,4.17
2023-05-17T04:39:37.838Z,2.47
2023-05-17T04:42:06.004Z,3.63
2023-05-17T04:44:38.429Z,2.83
2023-05-17T04:47:06.791Z,3.37
2023-05-17T04:49:36.378Z,2.93
2023-05-17T04:52:06.163Z,3.17
2023-05-17T04:54:35.604Z,3.33
2023-05-17T04:57:03.722Z,3.00
2023-05-17T04:59:58.263Z,4.93
2023-05-17T05:02:27.300Z,4.10
2023-05-17T05:04:56.694Z,3.60
2023-05-17T05:07:24.675Z,4.90
2023-05-17T05:09:52.874Z,2.60
2023-05-17T05:12:22.966Z,5.00
2023-05-17T05:14:51.173Z,4.20
2023-05-17T05:17:19.484Z,4.30
2023-05-17T05:19:47.932Z,5.00
2023-05-17T05:22:17.479Z,4.43
2023-05-17T05:24:45.966Z,5.30
2023-05-17T05:27:14.679Z,3.10
2023-05-17T05:29:43.111Z,2.73
2023-05-17T05:32:12.703Z,4.63
2023-05-17T05:34:46.031Z,2.60
2023-05-17T05:37:17.190Z,2.83
2023-05-17T05:39:48.304Z,4.37
2023-05-17T05:42:16.357Z,5.10
2023-05-17T05:44:45.020Z,5.03
2023-05-17T05:47:13.272Z,4.50
2023-05-17T05:49:41.178Z,5.47
2023-05-17T05:52:09.845Z,6.83
2023-05-17T05:54:38.666Z,4.13
2023-05-17T05:57:08.099Z,6.07
2023-05-17T05:59:36.636Z,5.37
2023-05-17T06:02:05.698Z,4.87
2023-05-17T06:04:44.617Z,4.30
2023-05-17T06:07:14.047Z,5.53
2023-05-17T06:09:42.601Z,3.97
2023-05-17T06:12:11.970Z,6.20
2023-05-17T06:14:39.896Z,7.63
2023-05-17T06:17:07.880Z,6.37
2023-05-17T06:19:35.992Z,5.53
2023-05-17T06:22:05.084Z,6.00
2023-05-17T06:24:33.268Z,5.97
2023-05-17T06:27:01.643Z,5.97
2023-05-17T06:29:30.942Z,6.50
2023-05-17T06:31:59.856Z,7.07
2023-05-17T06:34:28.192Z,5.63
2023-05-17T06:36:56.359Z,7.33
2023-05-17T06:39:24.492Z,7.03
2023-05-17T06:41:52.517Z,7.60
2023-05-17T06:44:20.442Z,9.63
2023-05-17T06:46:49.789Z,8.53
2023-05-17T06:49:17.725Z,7.47
2023-05-17T06:51:45.729Z,9.77
2023-05-17T06:54:13.661Z,11.33
2023-05-17T06:56:41.710Z,9.87
2023-05-17T06:59:09.642Z,10.53
2023-05-17T07:01:37.788Z,9.63
2023-05-17T07:04:07.266Z,8.73
2023-05-17T07:06:35.392Z,8.83
2023-05-17T07:09:03.254Z,9.83
2023-05-17T07:11:31.303Z,11.07
2023-05-17T07:13:59.155Z,10.40
2023-05-17T07:16:27.356Z,10.60
2023-05-17T07:18:55.905Z,9.30
2023-05-17T07:21:25.690Z,8.17
2023-05-17T07:23:53.597Z,12.17
2023-05-17T07:26:21.879Z,11.43
2023-05-17T07:28:50.163Z,10.43
2023-05-17T07:31:18.258Z,10.10
2023-05-17T07:33:46.503Z,9.40
2023-05-17T07:36:14.590Z,13.87
2023-05-17T07:38:45.985Z,10.70
2023-05-17T07:41:16.867Z,10.47
2023-05-17T07:43:45.011Z,12.07
2023-05-17T07:46:12.956Z,9.63
2023-05-17T07:48:41.410Z,8.10
2023-05-17T07:51:09.384Z,9.63
2023-05-17T07:53:37.658Z,6.60
2023-05-17T07:56:07.318Z,7.73
2023-05-17T07:58:36.265Z,7.73
2023-05-17T08:01:04.530Z,5.87
2023-05-17T08:03:35.267Z,5.53
2023-05-17T08:06:03.550Z,8.43
2023-05-17T08:08:31.830Z,5.40
2023-05-17T08:10:59.838Z,4.90
2023-05-17T08:13:29.368Z,5.67
2023-05-17T08:16:05.300Z,6.10
2023-05-17T08:18:40.798Z,3.63
2023-05-17T08:21:08.883Z,4.83
2023-05-17T08:23:37.120Z,5.03
2023-05-17T08:26:05.075Z,4.53
2023-05-17T08:28:34.747Z,4.27
2023-05-17T08:31:04.078Z,4.63
2023-05-17T08:33:33.126Z,4.63
2023-05-17T08:36:02.941Z,5.53
2023-05-17T08:38:30.925Z,5.47
2023-05-17T08:40:59.806Z,5.03
2023-05-17T08:43:28.739Z,4.43
2023-05-17T08:45:59.145Z,4.63
2023-05-17T08:48:27.802Z,4.30
2023-05-17T08:50:58.004Z,3.40
2023-05-17T08:53:26.507Z,4.37
2023-05-17T08:55:58.934Z,4.97
2023-05-17T08:58:29.324Z,4.90
2023-05-17T09:01:00.150Z,3.93
2023-05-17T09:03:30.305Z,5.67
2023-05-17T09:06:00.000Z,5.37
2023-05-17T09:08:30.061Z,5.67
2023-05-17T09:10:59.265Z,6.97
2023-05-17T09:13:27.578Z,5.67
2023-05-17T09:15:56.248Z,3.97
2023-05-17T09:18:33.244Z,5.43
2023-05-17T09:21:04.918Z,4.70
2023-05-17T09:23:34.246Z,3.07
2023-05-17T09:26:06.532Z,5.13
2023-05-17T09:28:47.221Z,5.43
2023-05-17T09:31:18.456Z,3.92
2023-05-17T09:33:49.062Z,3.97
2023-05-17T09:36:19.130Z,5.05
2023-05-17T09:38:54.759Z,6.97
2023-05-17T09:41:23.358Z,6.55
2023-05-17T09:43:51.431Z,4.32
2023-05-17T09:46:20.957Z,4.10
2023-05-17T09:48:55.184Z,4.82
2023-05-17T09:51:33.526Z,5.03
2023-05-17T09:54:01.919Z,5.75
2023-05-17T09:56:31.262Z,4.50
2023-05-17T09:59:02.001Z,4.10
2023-05-17T10:01:31.569Z,5.28
2023-05-17T10:04:03.847Z,4.63
2023-05-17T10:06:45.378Z,4.93
2023-05-17T10:09:15.671Z,3.70
2023-05-17T10:11:47.772Z,3.35
2023-05-17T10:14:22.545Z,3.33
2023-05-17T10:16:51.992Z,13.05
2023-05-17T10:19:22.608Z,4.40
2023-05-17T10:21:52.544Z,3.13
2023-05-17T10:24:21.850Z,6.63
2023-05-17T10:26:51.883Z,4.30
2023-05-17T10:29:21.509Z,4.88
2023-05-17T10:31:51.863Z,3.58
2023-05-17T10:34:22.160Z,3.15
2023-05-17T10:36:50.877Z,3.50
2023-05-17T10:39:19.135Z,5.75
2023-05-17T10:41:48.871Z,2.85
2023-05-17T10:44:18.603Z,4.35
2023-05-17T10:46:53.523Z,5.18
2023-05-17T10:49:26.960Z,3.75
2023-05-17T10:51:55.739Z,4.32
2023-05-17T10:54:35.828Z,4.45
2023-05-17T10:57:08.813Z,4.38
2023-05-17T10:59:37.482Z,3.30
2023-05-17T11:02:15.496Z,4.35
2023-05-17T11:04:45.654Z,3.60
2023-05-17T11:07:26.962Z,4.15
2023-05-17T11:09:57.112Z,4.32
2023-05-17T11:12:34.928Z,6.18
2023-05-17T11:15:08.879Z,3.55
2023-05-17T11:17:50.830Z,3.88
2023-05-17T11:20:35.532Z,4.00
2023-05-17T11:23:05.787Z,3.50
2023-05-17T11:25:36.131Z,2.75
2023-05-17T11:28:08.936Z,3.10
2023-05-17T11:30:42.113Z,4.68
2023-05-17T11:33:20.942Z,3.88
2023-05-17T11:35:57.848Z,2.08
2023-05-17T11:38:31.652Z,4.43
2023-05-17T11:41:01.190Z,4.40
2023-05-17T11:43:31.042Z,4.50
2023-05-17T11:46:04.224Z,3.58
2023-05-17T11:48:34.621Z,2.42
2023-05-17T11:51:04.879Z,5.38
2023-05-17T11:53:33.130Z,3.85
2023-05-17T11:56:04.135Z,3.35
2023-05-17T11:58:33.263Z,4.28
2023-05-17T12:01:04.382Z,5.43
2023-05-17T12:03:34.845Z,3.38
2023-05-17T12:06:05.524Z,5.32
2023-05-17T12:08:35.377Z,5.38
2023-05-17T12:11:04.341Z,3.50
2023-05-17T12:13:34.079Z,8.43
2023-05-17T12:16:05.871Z,2.92
2023-05-17T12:18:39.627Z,2.28
2023-05-17T12:21:11.952Z,2.65
2023-05-17T12:23:42.797Z,2.58
2023-05-17T12:26:12.278Z,3.08
2023-05-17T12:28:41.723Z,4.28
2023-05-17T12:31:12.767Z,3.53
2023-05-17T12:33:43.785Z,4.30
2023-05-17T12:36:13.649Z,4.22
2023-05-17T12:38:43.429Z,2.22
2023-05-17T12:41:22.783Z,3.25
2023-05-17T12:43:54.936Z,3.53
2023-05-17T12:46:29.815Z,2.60
2023-05-17T12:49:06.559Z,6.25
2023-05-17T12:51:43.174Z,2.65
2023-05-17T12:54:11.899Z,4.20
2023-05-17T12:56:42.898Z,2.30
2023-05-17T12:59:13.505Z,4.72
2023-05-17T13:01:44.112Z,3.78
2023-05-17T13:04:14.281Z,3.17
2023-05-17T13:06:47.471Z,3.33
2023-05-17T13:09:16.398Z,5.28
2023-05-17T13:11:44.353Z,9.13
2023-05-17T13:14:13.441Z,3.92
2023-05-17T13:16:42.893Z,3.28
2023-05-17T13:19:15.446Z,4.18
2023-05-17T13:21:43.803Z,3.45
2023-05-17T13:24:11.875Z,3.97
2023-05-17T13:26:39.957Z,4.03
2023-05-17T13:29:07.859Z,3.67
2023-05-17T13:31:35.907Z,2.33
2023-05-17T13:34:04.082Z,3.97
2023-05-17T13:36:33.557Z,2.88
2023-05-17T13:39:02.230Z,5.72
2023-05-17T13:41:31.026Z,3.92
2023-05-17T13:43:58.904Z,3.65
2023-05-17T13:46:27.179Z,3.00
2023-05-17T13:48:55.222Z,5.35
2023-05-17T13:51:23.729Z,3.88
2023-05-17T13:53:53.197Z,4.43
2023-05-17T13:56:22.427Z,4.65
2023-05-17T13:58:50.537Z,2.53
2023-05-17T14:01:18.960Z,5.15
2023-05-17T14:03:47.064Z,5.63
2023-05-17T14:06:15.004Z,4.15
2023-05-17T14:08:46.775Z,4.10
2023-05-17T14:11:16.106Z,3.95
2023-05-17T14:13:44.609Z,3.13
2023-05-17T14:16:12.618Z,2.92
2023-05-17T14:18:40.650Z,4.03
2023-05-17T14:21:09.056Z,3.25
2023-05-17T14:23:37.836Z,3.58
2023-05-17T14:26:07.508Z,3.38
2023-05-17T14:28:39.061Z,4.38
2023-05-17T14:31:08.254Z,4.70
2023-05-17T14:33:36.512Z,4.07
2023-05-17T14:36:04.960Z,6.00
2023-05-17T14:38:33.067Z,4.25
2023-05-17T14:41:02.215Z,3.10
2023-05-17T14:43:30.780Z,7.07
2023-05-17T14:46:00.118Z,4.38
2023-05-17T14:48:28.409Z,3.92
2023-05-17T14:50:56.415Z,3.25
2023-05-17T14:53:29.104Z,4.10
2023-05-17T14:55:57.818Z,3.90
2023-05-17T14:58:26.016Z,4.68
2023-05-17T15:01:05.785Z,4.88
2023-05-17T15:03:36.702Z,4.75
2023-05-17T15:06:08.193Z,3.75
2023-05-17T15:08:39.352Z,4.57
2023-05-17T15:11:07.558Z,3.30
2023-05-17T15:13:35.586Z,4.38
2023-05-17T15:16:04.338Z,5.13
2023-05-17T15:18:33.175Z,2.70
2023-05-17T15:21:02.813Z,3.30
2023-05-17T15:23:30.795Z,2.63
2023-05-17T15:25:58.957Z,5.53
2023-05-17T15:28:27.562Z,5.22
2023-05-17T15:31:02.011Z,4.45
2023-05-17T15:33:31.009Z,4.40
2023-05-17T15:35:59.027Z,2.78
2023-05-17T15:38:28.342Z,4.57
2023-05-17T15:41:03.861Z,3.97
2023-05-17T15:43:32.594Z,4.10
2023-05-17T15:46:00.815Z,4.20
2023-05-17T15:48:29.933Z,2.22
2023-05-17T15:50:58.240Z,4.43
2023-05-17T15:53:28.597Z,2.58
2023-05-17T15:55:56.829Z,4.15
2023-05-17T15:58:27.775Z,3.47
2023-05-17T16:00:56.124Z,3.85
2023-05-17T16:03:24.119Z,5.57
2023-05-17T16:05:52.357Z,5.20
2023-05-17T16:08:20.500Z,8.32
2023-05-17T16:10:49.893Z,4.18
2023-05-17T16:13:17.791Z,2.72
2023-05-17T16:15:45.928Z,6.53
2023-05-17T16:18:15.259Z,5.43
2023-05-17T16:20:43.581Z,6.10
2023-05-17T16:23:11.773Z,5.15
2023-05-17T16:25:40.020Z,3.88
2023-05-17T16:28:09.387Z,2.05
2023-05-17T16:30:37.346Z,4.23
2023-05-17T16:33:08.186Z,3.60
2023-05-17T16:35:36.523Z,3.47
2023-05-17T16:38:04.675Z,4.77
2023-05-17T16:40:33.628Z,3.63
2023-05-17T16:43:02.104Z,2.87
2023-05-17T16:45:31.516Z,4.10
2023-05-17T16:47:59.787Z,3.47
2023-05-17T16:50:28.113Z,7.33
2023-05-17T16:52:56.265Z,5.30
2023-05-17T16:55:24.460Z,5.37
2023-05-17T16:57:52.667Z,4.03
2023-05-17T17:00:21.358Z,4.03
2023-05-17T17:02:51.228Z,3.77
2023-05-17T17:05:20.290Z,3.97
2023-05-17T17:07:48.192Z,3.27
2023-05-17T17:10:16.260Z,5.80
2023-05-17T17:12:44.428Z,6.87
2023-05-17T17:15:12.685Z,3.30
2023-05-17T17:17:41.096Z,4.63
2023-05-17T17:20:12.135Z,5.67
2023-05-17T17:22:40.290Z,5.03
2023-05-17T17:25:09.021Z,5.00
2023-05-17T17:27:37.317Z,3.70
2023-05-17T17:30:06.298Z,3.77
2023-05-17T17:32:34.736Z,3.97
2023-05-17T17:35:02.693Z,5.97
2023-05-17T17:37:32.180Z,3.60
2023-05-17T17:40:00.202Z,4.37
2023-05-17T17:42:30.780Z,3.93
2023-05-17T17:45:00.059Z,3.03
2023-05-17T17:47:28.254Z,4.07
2023-05-17T17:49:56.169Z,4.80
2023-05-17T17:52:24.102Z,3.90
2023-05-17T17:54:56.364Z,3.37
2023-05-17T17:57:24.380Z,3.30
2023-05-17T17:59:53.391Z,5.43
2023-05-17T18:02:21.620Z,3.73
2023-05-17T18:04:49.763Z,3.10
2023-05-17T18:07:18.542Z,3.47
2023-05-17T18:09:46.637Z,3.80
2023-05-17T18:12:15.938Z,3.20
2023-05-17T18:14:43.978Z,8.07
2023-05-17T18:17:11.892Z,5.27
2023-05-17T18:19:39.881Z,3.37
2023-05-17T18:22:07.816Z,4.90
2023-05-17T18:24:35.961Z,4.40
2023-05-17T18:27:03.903Z,3.17
2023-05-17T18:29:33.335Z,3.03
2023-05-17T18:32:01.946Z,3.73
2023-05-17T18:34:30.019Z,4.47
2023-05-17T18:36:58.358Z,5.53
2023-05-17T18:39:26.948Z,4.67
2023-05-17T18:41:55.027Z,4.50
2023-05-17T18:44:22.974Z,3.37
2023-05-17T18:46:53.818Z,4.90
2023-05-17T18:49:22.282Z,4.97
2023-05-17T18:51:50.365Z,4.10
2023-05-17T18:54:18.542Z,3.90
2023-05-17T18:56:46.497Z,3.87
2023-05-17T18:59:14.475Z,4.43
2023-05-17T19:01:43.688Z,3.67
2023-05-17T19:04:13.200Z,4.30
2023-05-17T19:06:42.175Z,4.93
2023-05-17T19:09:10.318Z,3.67
2023-05-17T19:11:38.324Z,4.60
2023-05-17T19:14:06.928Z,4.20
2023-05-17T19:16:34.882Z,3.27
2023-05-17T19:19:03.328Z,4.87
2023-05-17T19:21:32.612Z,5.27
2023-05-17T19:24:01.427Z,5.07
2023-05-17T19:26:29.389Z,4.67
2023-05-17T19:28:57.368Z,4.97
2023-05-17T19:31:25.427Z,6.97
2023-05-17T19:33:53.367Z,4.80
2023-05-17T19:36:21.533Z,3.83
2023-05-17T19:38:52.094Z,4.80
2023-05-17T19:41:20.479Z,4.70
2023-05-17T19:43:48.366Z,5.27
2023-05-17T19:46:16.569Z,6.30
2023-05-17T19:48:44.513Z,7.40
2023-05-17T19:51:12.734Z,4.43
2023-05-17T19:53:51.534Z,4.63
2023-05-17T19:56:23.914Z,4.60
2023-05-17T19:58:52.778Z,5.63
2023-05-17T20:01:21.625Z,4.37
2023-05-17T20:03:49.809Z,4.80
2023-05-17T20:06:18.156Z,4.17
2023-05-17T20:08:46.381Z,6.17
2023-05-17T20:11:14.772Z,5.27
2023-05-17T20:13:44.116Z,5.77
2023-05-17T20:16:13.642Z,5.17
2023-05-17T20:18:42.961Z,4.70
2023-05-17T20:21:12.689Z,7.87
2023-05-17T20:23:40.930Z,7.00
2023-05-17T20:26:16.018Z,5.97
2023-05-17T20:28:45.411Z,4.97
2023-05-17T20:31:14.316Z,6.37
2023-05-17T20:33:44.074Z,7.43
2023-05-17T20:36:14.139Z,8.70
2023-05-17T20:38:42.293Z,7.23
2023-05-17T20:41:11.009Z,6.47
2023-05-17T20:43:39.117Z,7.13
2023-05-17T20:46:09.841Z,7.87
2023-05-17T20:48:38.979Z,7.17
2023-05-17T20:51:06.965Z,13.23
2023-05-17T20:53:35.023Z,14.23
2023-05-17T20:56:03.528Z,10.07
2023-05-17T20:58:31.834Z,5.70
2023-05-17T21:01:00.929Z,7.63
2023-05-17T21:03:34.146Z,4.07
2023-05-17T21:06:05.030Z,5.53
2023-05-17T21:08:34.071Z,6.47
2023-05-17T21:11:02.027Z,5.60
2023-05-17T21:13:30.137Z,6.70
2023-05-17T21:15:58.298Z,5.53
2023-05-17T21:18:26.742Z,5.37
2023-05-17T21:20:56.275Z,4.53
2023-05-17T21:23:24.481Z,5.87
2023-05-17T21:25:52.428Z,4.70
2023-05-17T21:28:20.678Z,5.70
2023-05-17T21:30:48.647Z,4.50
2023-05-17T21:33:16.822Z,4.93
2023-05-17T21:35:44.795Z,4.63
2023-05-17T21:38:14.275Z,5.80
2023-05-17T21:40:42.458Z,5.57
2023-05-17T21:43:11.340Z,3.87
2023-05-17T21:45:39.725Z,4.20
2023-05-17T21:48:07.870Z,5.73
2023-05-17T21:50:35.910Z,4.63
2023-05-17T21:53:04.102Z,3.67
2023-05-17T21:55:36.834Z,6.20
2023-05-17T21:58:16.357Z,3.60
2023-05-17T22:00:44.401Z,5.00
2023-05-17T22:03:12.723Z,5.57
2023-05-17T22:05:40.869Z,5.50
2023-05-17T22:08:09.132Z,4.00
2023-05-17T22:10:40.198Z,6.13
2023-05-17T22:13:12.525Z,4.87
2023-05-17T22:15:41.305Z,3.03
2023-05-17T22:18:12.412Z,4.03
2023-05-17T22:20:40.820Z,3.80
2023-05-17T22:23:08.915Z,3.63
2023-05-17T22:25:38.329Z,3.20
2023-05-17T22:28:06.427Z,4.37
2023-05-17T22:30:34.656Z,3.43
2023-05-17T22:33:02.930Z,3.43
2023-05-17T22:35:31.154Z,7.10
2023-05-17T22:37:59.091Z,5.23
2023-05-17T22:40:27.392Z,5.03
2023-05-17T22:42:58.037Z,4.40
2023-05-17T22:45:32.920Z,3.70
2023-05-17T22:48:02.729Z,4.20
2023-05-17T22:50:34.688Z,4.80
2023-05-17T22:53:02.557Z,4.07
2023-05-17T22:55:31.118Z,3.63
2023-05-17T22:58:00.676Z,6.57
2023-05-17T23:00:29.051Z,4.27
2023-05-17T23:02:57.027Z,3.60
2023-05-17T23:05:25.188Z,7.23
2023-05-17T23:07:53.428Z,3.80
2023-05-17T23:10:21.730Z,4.00
2023-05-17T23:12:52.062Z,5.07
2023-05-17T23:15:21.995Z,4.27
2023-05-17T23:17:50.881Z,3.53
2023-05-17T23:20:20.126Z,4.97
2023-05-17T23:22:48.433Z,3.47
2023-05-17T23:25:16.800Z,4.90
2023-05-17T23:27:44.720Z,5.70
2023-05-17T23:30:13.343Z,2.87
2023-05-17T23:32:46.997Z,5.67
2023-05-17T23:35:15.286Z,4.73
2023-05-17T23:37:43.293Z,6.13
2023-05-17T23:40:12.812Z,4.00
2023-05-17T23:42:41.461Z,4.73
2023-05-17T23:45:10.464Z,3.20
2023-05-17T23:47:40.760Z,5.20
2023-05-17T23:50:12.124Z,2.40
2023-05-17T23:52:40.252Z,4.27
2023-05-17T23:55:09.104Z,4.53
2023-05-17T23:57:37.802Z,4.27
